No particular awareness of the weather is required.    There are no Weather-warnings


Meteo18 Weather Cam more information Meteo18 Weather Cam


Thunder radar more information blitzortung!


Rain radar more information rain snow radar


Visit our other weather sites:

Template documentation
and downloads

And another site



Weather Underground History page Text

Daily Summary for July 10, 2017 Units:  English    Metric   Both
« Previous Day
Next Day »
Daily Weekly Monthly Yearly Custom
  High: Low: Average:
Temperature: 73.6 °F 62.2 °F 66.6 °F
Dew Point: 64.6 °F 60.3 °F 62.6 °F
Humidity: 97 % 66 % 88 %
Wind Speed: 14 mph 0 mph 4.8 mph
Wind Gust: 20 mph - -
Wind:- - WSW
Pressure: 30 in 29.9 in -
Precipitation: 0.04 in    
Historical Graphs
 
 
Tabular Data for July 10, 2017
Time Temperature Dew Point Pressure Wind Wind Speed Wind Gust Humidity Rainfall Rate (Hourly)
00:02 65.3 °F 64 °F 29.9 in Calm   1 mph 96 % 0 in
00:07 65.1 °F 64 °F 29.9 in SE 1 mph   96 % 0 in
00:12 65.1 °F 64 °F 29.9 in Calm   2 mph 96 % 0 in
00:17 65.1 °F 64 °F 29.9 in Calm   2 mph 96 % 0 in
00:22 65.1 °F 64 °F 29.9 in Calm   2 mph 96 % 0 in
00:27 65.3 °F 64 °F 29.9 in Calm   1 mph 96 % 0 in
00:32 65.3 °F 64 °F 29.9 in SW 1 mph 1 mph 96 % 0 in
00:42 65.5 °F 64.2 °F 29.9 in South 1 mph 2 mph 96 % 0 in
00:47 65.5 °F 64.2 °F 29.9 in Calm   3 mph 96 % 0 in
00:57 65.5 °F 64.6 °F 29.9 in SW 2 mph 2 mph 97 % 0 in
01:02 65.5 °F 64.2 °F 29.9 in SW 5 mph 5 mph 96 % 0 in
01:07 65.3 °F 64 °F 29.9 in SW 3 mph 6 mph 96 % 0 in
01:12 65.1 °F 64 °F 29.9 in SSW 3 mph 7 mph 96 % 0 in
01:17 65.1 °F 64 °F 29.9 in SW 4 mph 8 mph 96 % 0 in
01:22 64.9 °F 63.9 °F 29.9 in WSW 4 mph 8 mph 96 % 0 in
01:27 64.9 °F 63.9 °F 29.9 in WSW 3 mph 8 mph 96 % 0 in
01:32 64.9 °F 63.9 °F 29.9 in West 2 mph 7 mph 96 % 0 in
01:37 64.9 °F 63.9 °F 29.9 in WSW 2 mph 7 mph 96 % 0 in
01:42 64.9 °F 63.9 °F 29.9 in WSW 4 mph 6 mph 96 % 0 in
01:47 64.9 °F 63.9 °F 29.9 in West 3 mph 6 mph 96 % 0 in
01:52 64.9 °F 63.9 °F 29.9 in WSW 3 mph 6 mph 96 % 0 in
01:57 64.9 °F 63.9 °F 29.9 in WNW 6 mph 7 mph 96 % 0 in
02:02 64.9 °F 63.9 °F 29.9 in West 2 mph 8 mph 96 % 0 in
02:07 65.1 °F 64 °F 29.9 in West 3 mph 8 mph 96 % 0 in
02:12 65.1 °F 64 °F 29.9 in West 3 mph 8 mph 96 % 0 in
02:17 65.1 °F 64 °F 29.9 in WSW 3 mph 8 mph 96 % 0 in
02:22 65.1 °F 64 °F 29.9 in WSW 4 mph 6 mph 96 % 0 in
02:27 64.9 °F 63.9 °F 29.9 in WSW 3 mph 6 mph 96 % 0 in
02:32 64.9 °F 63.9 °F 29.9 in WSW 4 mph 5 mph 96 % 0 in
02:42 64.9 °F 63.9 °F 29.9 in West 2 mph 6 mph 96 % 0 in
02:47 64.9 °F 63.9 °F 29.9 in WSW 8 mph 8 mph 96 % 0 in
02:52 64.9 °F 63.9 °F 29.9 in WSW 2 mph 8 mph 96 % 0 in
02:57 64.9 °F 63.9 °F 29.9 in WSW 1 mph 8 mph 96 % 0 in
03:02 64.9 °F 63.9 °F 29.9 in West 2 mph 8 mph 96 % 0 in
03:07 64.9 °F 63.9 °F 29.9 in SW 2 mph 5 mph 96 % 0 in
03:12 64.9 °F 63.9 °F 29.9 in SW 4 mph 7 mph 96 % 0 in
03:17 64.9 °F 63.9 °F 29.9 in SSW 2 mph 7 mph 96 % 0 in
03:22 64.9 °F 63.9 °F 29.9 in SW 1 mph 7 mph 96 % 0 in
03:27 64.9 °F 63.9 °F 29.9 in SW 3 mph 4 mph 96 % 0 in
03:32 64.9 °F 63.9 °F 29.9 in WSW 2 mph 5 mph 96 % 0 in
03:37 64.9 °F 63.9 °F 29.9 in WSW 3 mph 5 mph 96 % 0 in
03:42 64.9 °F 64 °F 29.9 in South 3 mph 5 mph 97 % 0 in
03:47 65.1 °F 64.2 °F 29.9 in SW 5 mph 9 mph 97 % 0 in
03:52 64.9 °F 63.9 °F 29.9 in WSW 6 mph 12 mph 96 % 0 in
03:57 64.9 °F 63.9 °F 29.9 in SW 7 mph 12 mph 96 % 0 in
04:02 64.8 °F 63.7 °F 29.9 in West 8 mph 12 mph 96 % 0 in
04:12 64.4 °F 63.3 °F 29.9 in West 10 mph 15 mph 96 % 0 in
04:17 64.2 °F 63.1 °F 29.9 in WSW 6 mph 14 mph 96 % 0 in
04:22 64.2 °F 62.8 °F 29.9 in WNW 4 mph 14 mph 95 % 0 in
04:27 64.2 °F 62.8 °F 29.9 in West 8 mph 14 mph 95 % 0 in
04:37 64.2 °F 62.8 °F 29.9 in SW 6 mph 12 mph 95 % 0 in
04:42 64 °F 62.2 °F 29.9 in WSW 3 mph 14 mph 94 % 0 in
04:47 64 °F 62.2 °F 29.9 in West 5 mph 14 mph 94 % 0 in
04:52 63.9 °F 62.1 °F 29.9 in WSW 4 mph 14 mph 94 % 0 in
04:57 64 °F 62.6 °F 29.9 in West 9 mph 13 mph 95 % 0 in
05:02 64 °F 62.2 °F 29.9 in West 5 mph 13 mph 94 % 0 in
05:07 64 °F 62.6 °F 29.9 in West 10 mph 14 mph 95 % 0 in
05:12 64 °F 62.6 °F 29.9 in West 5 mph 16 mph 95 % 0 in
05:17 64 °F 62.6 °F 29.9 in WSW 10 mph 16 mph 95 % 0 in
05:22 64 °F 62.6 °F 29.9 in SW 6 mph 16 mph 95 % 0 in
05:32 64 °F 62.6 °F 29.9 in West 5 mph 15 mph 95 % 0 in
05:42 64 °F 63 °F 29.9 in SSW 6 mph 13 mph 96 % 0 in
05:47 64.2 °F 63.1 °F 29.9 in SW 5 mph 13 mph 96 % 0 in
05:52 64.2 °F 63.1 °F 29.9 in WSW 11 mph 13 mph 96 % 0 in
05:57 64.2 °F 63.1 °F 29.9 in West 4 mph 14 mph 96 % 0 in
06:02 64.4 °F 63.5 °F 29.9 in West 7 mph 14 mph 97 % 0 in
06:12 64.6 °F 63.7 °F 29.9 in West 9 mph 15 mph 97 % 0 in
06:17 64.6 °F 63.7 °F 29.9 in West 6 mph 15 mph 97 % 0 in
06:22 64.8 °F 63.7 °F 29.9 in NW 8 mph 15 mph 96 % 0 in
06:32 64.8 °F 63.3 °F 29.9 in West 5 mph 14 mph 95 % 0.01 in
06:37 64.8 °F 63 °F 29.9 in West 4 mph 14 mph 94 % 0.01 in
06:42 64.8 °F 62.6 °F 29.9 in West 5 mph 14 mph 93 % 0.01 in
06:47 64.6 °F 62.2 °F 29.9 in WNW 2 mph 13 mph 92 % 0.01 in
06:52 64.4 °F 62.1 °F 29.9 in WNW 7 mph 13 mph 92 % 0.01 in
07:02 63.9 °F 61.2 °F 29.9 in North 5 mph 10 mph 91 % 0.01 in
07:12 63.5 °F 61.2 °F 29.9 in WNW 3 mph 14 mph 92 % 0.01 in
07:17 63.3 °F 61 °F 29.9 in WNW 3 mph 8 mph 92 % 0.01 in
07:22 63.3 °F 61 °F 29.9 in West 2 mph 8 mph 92 % 0.01 in
07:32 63.3 °F 60.6 °F 29.9 in WNW 3 mph 8 mph 91 % 0 in
07:37 63.3 °F 60.6 °F 29.9 in Calm   7 mph 91 % 0 in
07:42 63.5 °F 60.8 °F 29.9 in West 3 mph 5 mph 91 % 0 in
07:47 63.5 °F 60.8 °F 29.9 in Calm   4 mph 91 % 0 in
07:52 63.5 °F 60.8 °F 29.9 in Calm   4 mph 91 % 0 in
08:02 63.5 °F 61.2 °F 29.9 in SSW 2 mph 3 mph 92 % 0 in
08:12 63.7 °F 61.3 °F 29.9 in SSE 3 mph 6 mph 92 % 0 in
08:17 63.9 °F 61.9 °F 29.9 in SSW 4 mph 7 mph 93 % 0 in
08:22 64 °F 61.7 °F 29.9 in SW 7 mph 7 mph 92 % 0 in
08:27 64.2 °F 62.2 °F 29.9 in SW 5 mph 12 mph 93 % 0 in
08:32 64.2 °F 61.9 °F 29.9 in SSW 7 mph 12 mph 92 % 0 in
08:42 64 °F 62.1 °F 29.9 in WSW 6 mph 12 mph 93 % 0 in
08:52 63.7 °F 61.7 °F 29.9 in SSW 10 mph 12 mph 93 % 0 in
08:57 63.7 °F 61.7 °F 29.9 in SW 6 mph 13 mph 93 % 0 in
09:02 63.7 °F 61.3 °F 29.9 in SW 5 mph 13 mph 92 % 0 in
09:07 63.9 °F 61.5 °F 29.9 in WSW 3 mph 14 mph 92 % 0 in
09:12 64 °F 61.7 °F 29.9 in WSW 4 mph 14 mph 92 % 0 in
09:17 64.2 °F 61.5 °F 29.9 in West 5 mph 14 mph 91 % 0 in
09:22 64.6 °F 61.9 °F 29.9 in West 3 mph 14 mph 91 % 0 in
09:27 64.9 °F 62.2 °F 29.9 in WSW 6 mph 14 mph 91 % 0 in
09:32 64.9 °F 62.2 °F 29.9 in WSW 1 mph 14 mph 91 % 0 in
09:37 65.7 °F 62.6 °F 29.9 in SSW 3 mph 11 mph 90 % 0 in
09:42 66.2 °F 62.8 °F 29.9 in South 8 mph 11 mph 89 % 0 in
09:47 66.6 °F 62.6 °F 29.9 in WSW 4 mph 11 mph 87 % 0 in
09:52 66.7 °F 63.1 °F 29.9 in WSW 4 mph 11 mph 88 % 0 in
09:57 66.7 °F 62.8 °F 29.9 in SW 12 mph 15 mph 87 % 0 in
10:02 66.7 °F 62.8 °F 29.9 in WSW 3 mph 15 mph 87 % 0 in
10:12 66.9 °F 63 °F 29.9 in West 2 mph 15 mph 87 % 0 in
10:17 66.9 °F 63 °F 29.9 in WSW 3 mph 13 mph 87 % 0 in
10:22 66.7 °F 62.8 °F 29.9 in SW 2 mph 13 mph 87 % 0 in
10:32 66.6 °F 62.6 °F 29.9 in WSW 7 mph 11 mph 87 % 0 in
10:37 66.7 °F 62.4 °F 29.9 in SW 3 mph 11 mph 86 % 0 in
10:42 66.7 °F 62.4 °F 29.9 in WSW 4 mph 11 mph 86 % 0 in
10:47 67.3 °F 63 °F 29.9 in WSW 4 mph 11 mph 86 % 0 in
10:52 67.6 °F 63 °F 29.9 in SSW 3 mph 11 mph 85 % 0 in
10:57 67.3 °F 62.2 °F 29.9 in West 6 mph 15 mph 84 % 0 in
11:02 67.3 °F 63 °F 29.9 in WSW 3 mph 15 mph 86 % 0 in
11:07 67.3 °F 63 °F 29.9 in SW 3 mph 15 mph 86 % 0 in
11:12 67.5 °F 63.1 °F 29.9 in West 2 mph 15 mph 86 % 0 in
11:17 67.6 °F 63 °F 29.9 in SSW 4 mph 10 mph 85 % 0 in
11:22 68.2 °F 63.5 °F 29.9 in SW 7 mph 10 mph 85 % 0 in
11:27 68.4 °F 63.7 °F 29.9 in West 5 mph 14 mph 85 % 0 in
11:32 68.4 °F 63.3 °F 29.9 in West 5 mph 14 mph 84 % 0 in
11:37 68.7 °F 64 °F 29.9 in SW 6 mph 15 mph 85 % 0 in
11:42 69.3 °F 64.6 °F 29.9 in SW 7 mph 15 mph 85 % 0 in
11:52 69.3 °F 63.9 °F 29.9 in South 7 mph 19 mph 83 % 0 in
11:57 69.3 °F 63.9 °F 29.9 in SW 11 mph 19 mph 83 % 0 in
12:02 69.3 °F 63.9 °F 29.9 in WSW 9 mph 14 mph 83 % 0 in
12:07 69.3 °F 63.5 °F 29.9 in SW 11 mph 16 mph 82 % 0 in
12:12 69.3 °F 63.5 °F 29.9 in SSW 9 mph 16 mph 82 % 0 in
12:17 69.3 °F 63.1 °F 29.9 in WSW 13 mph 15 mph 81 % 0 in
12:22 69.4 °F 63.7 °F 29.9 in SW 3 mph 15 mph 82 % 0 in
12:32 69.4 °F 62.6 °F 29.9 in SW 10 mph 17 mph 79 % 0 in
12:42 69.3 °F 62.4 °F 29.9 in WSW 7 mph 16 mph 79 % 0 in
12:47 69.8 °F 63.7 °F 29.9 in SW 7 mph 13 mph 81 % 0 in
12:52 70.7 °F 62.8 °F 29.9 in West 4 mph 12 mph 76 % 0 in
12:57 70.5 °F 63 °F 29.9 in SW 5 mph 14 mph 77 % 0 in
13:02 70.3 °F 62.4 °F 29.9 in WSW 9 mph 14 mph 76 % 0 in
13:07 70.5 °F 62.6 °F 29.9 in SW 11 mph 13 mph 76 % 0 in
13:12 70.9 °F 63.3 °F 29.9 in SSW 7 mph 14 mph 77 % 0 in
13:17 70.9 °F 62.2 °F 29.9 in SW 8 mph 15 mph 74 % 0 in
13:22 71.4 °F 63.5 °F 29.9 in SW 10 mph 16 mph 76 % 0 in
13:27 71.2 °F 62.1 °F 29.9 in WSW 6 mph 16 mph 73 % 0 in
13:32 71.4 °F 62.8 °F 29.9 in West 7 mph 16 mph 74 % 0 in
13:37 71.2 °F 62.1 °F 29.9 in West 13 mph 15 mph 73 % 0 in
13:42 71.6 °F 63.3 °F 29.9 in WSW 5 mph 15 mph 75 % 0 in
13:47 71.8 °F 63 °F 29.9 in SW 13 mph 15 mph 74 % 0 in
13:52 72 °F 63.1 °F 29.9 in SSW 3 mph 14 mph 74 % 0 in
13:57 72.3 °F 63.5 °F 29.9 in SSE 3 mph 14 mph 74 % 0 in
14:02 72.7 °F 63.5 °F 29.9 in West 10 mph 13 mph 73 % 0 in
14:07 72.7 °F 63.5 °F 29.9 in WSW 13 mph 13 mph 73 % 0 in
14:12 72 °F 62.4 °F 29.9 in West 14 mph 20 mph 72 % 0 in
14:17 71.8 °F 62.6 °F 29.9 in WSW 5 mph 20 mph 73 % 0 in
14:22 71.8 °F 63.5 °F 29.9 in West 7 mph 20 mph 75 % 0 in
14:27 72 °F 63.1 °F 29.9 in West 3 mph 18 mph 74 % 0 in
14:32 71.4 °F 62.8 °F 29.9 in SW 12 mph 18 mph 74 % 0 in
14:37 70.9 °F 62.6 °F 29.9 in West 10 mph 18 mph 75 % 0 in
14:42 70.9 °F 62.2 °F 29.9 in WNW 11 mph 18 mph 74 % 0 in
14:47 70.7 °F 62.1 °F 29.9 in West 8 mph 18 mph 74 % 0 in
14:52 70.9 °F 62.6 °F 29.9 in SW 7 mph 15 mph 75 % 0 in
14:57 71.2 °F 62.6 °F 29.9 in SW 8 mph 14 mph 74 % 0 in
15:02 71.1 °F 62.8 °F 29.9 in WSW 11 mph 14 mph 75 % 0 in
15:12 70.7 °F 62.1 °F 29.9 in WSW 8 mph 14 mph 74 % 0 in
15:17 70.9 °F 62.6 °F 29.9 in SW 13 mph 16 mph 75 % 0 in
15:22 70.9 °F 63 °F 29.9 in SW 12 mph 16 mph 76 % 0 in
15:27 71.4 °F 63.1 °F 29.9 in SW 9 mph 16 mph 75 % 0 in
15:32 72.1 °F 62.2 °F 29.9 in West 6 mph 15 mph 71 % 0 in
15:42 73 °F 61.9 °F 29.9 in WNW 5 mph 17 mph 68 % 0 in
15:47 73 °F 62.2 °F 29.9 in WSW 10 mph 17 mph 69 % 0 in
15:52 73.6 °F 61.9 °F 29.9 in WSW 8 mph 18 mph 67 % 0 in
15:57 73.6 °F 62.4 °F 29.9 in SW 14 mph 18 mph 68 % 0 in
16:02 73.2 °F 62.1 °F 29.9 in WSW 5 mph 18 mph 68 % 0 in
16:07 73.2 °F 61.2 °F 29.9 in West 6 mph 18 mph 66 % 0 in
16:12 72.9 °F 62.1 °F 29.9 in WSW 5 mph 18 mph 69 % 0 in
16:17 72.5 °F 62.6 °F 29.9 in WSW 8 mph 15 mph 71 % 0 in
16:22 72.1 °F 63 °F 29.9 in West 7 mph 13 mph 73 % 0 in
16:27 72.1 °F 63 °F 29.9 in West 6 mph 13 mph 73 % 0 in
16:32 72.1 °F 63.3 °F 29.9 in WSW 6 mph 13 mph 74 % 0 in
16:37 72.7 °F 63.5 °F 29.9 in SW 6 mph 13 mph 73 % 0 in
16:42 72.7 °F 63.1 °F 29.9 in SW 8 mph 13 mph 72 % 0 in
16:47 72.7 °F 63.1 °F 29.9 in West 5 mph 14 mph 72 % 0 in
16:52 72.5 °F 62.6 °F 29.9 in WSW 6 mph 14 mph 71 % 0 in
16:57 72.3 °F 62.4 °F 29.9 in WSW 11 mph 17 mph 71 % 0 in
17:02 72 °F 62.1 °F 29.9 in WSW 10 mph 18 mph 71 % 0 in
17:07 71.8 °F 61.9 °F 29.9 in SW 7 mph 18 mph 71 % 0 in
17:12 71.2 °F 62.6 °F 29.9 in West 13 mph 20 mph 74 % 0 in
17:17 70.2 °F 62.6 °F 29.9 in West 12 mph 20 mph 77 % 0 in
17:22 69.1 °F 63 °F 29.9 in West 3 mph 20 mph 81 % 0 in
17:32 68.4 °F 63.7 °F 29.9 in West 6 mph 13 mph 85 % 0 in
17:42 69.3 °F 63.5 °F 29.9 in West 3 mph 14 mph 82 % 0 in
17:47 69.1 °F 63 °F 29.9 in SW 6 mph 14 mph 81 % 0 in
17:52 68.7 °F 62.6 °F 29.9 in West 5 mph 13 mph 81 % 0 in
17:57 68.4 °F 62.6 °F 29.9 in WSW 4 mph 13 mph 82 % 0 in
18:02 68.2 °F 62.1 °F 29.9 in WSW 2 mph 13 mph 81 % 0 in
18:07 67.8 °F 60.6 °F 29.9 in West 3 mph 13 mph 78 % 0 in
18:12 67.6 °F 60.3 °F 29.9 in WSW 7 mph 12 mph 77 % 0 in
18:17 67.5 °F 60.4 °F 29.9 in SW 6 mph 12 mph 78 % 0 in
18:22 66.9 °F 60.3 °F 29.9 in SW 5 mph 12 mph 79 % 0 in
18:32 66.2 °F 60.8 °F 29.9 in West 4 mph 14 mph 83 % 0 in
18:37 65.8 °F 61.2 °F 29.9 in WNW 4 mph 13 mph 85 % 0 in
18:42 65.5 °F 61.2 °F 29.9 in WSW 5 mph 13 mph 86 % 0 in
18:47 64.9 °F 61 °F 29.9 in WSW 8 mph 10 mph 87 % 0 in
18:52 64.6 °F 61 °F 29.9 in West 8 mph 13 mph 88 % 0.01 in
18:57 64.2 °F 61 °F 29.9 in WNW 3 mph 13 mph 89 % 0.01 in
19:02 64 °F 61 °F 29.9 in West 5 mph 12 mph 90 % 0.01 in
19:12 63.9 °F 61.2 °F 29.9 in West 6 mph 10 mph 91 % 0.02 in
19:17 63.9 °F 61.5 °F 29.9 in WNW 6 mph 11 mph 92 % 0.02 in
19:22 63.9 °F 61.5 °F 29.9 in WNW 1 mph 11 mph 92 % 0.03 in
19:27 63.9 °F 61.9 °F 29.9 in NW 4 mph 11 mph 93 % 0.03 in
19:32 64 °F 62.1 °F 29.9 in WNW 2 mph 10 mph 93 % 0.03 in
19:37 64 °F 62.1 °F 29.9 in NW 1 mph 7 mph 93 % 0.03 in
19:42 64.2 °F 62.2 °F 29.9 in Calm   4 mph 93 % 0.03 in
19:47 64.2 °F 62.2 °F 29.9 in WNW 3 mph 3 mph 93 % 0.02 in
19:52 64.4 °F 62.4 °F 29.9 in WSW 2 mph 3 mph 93 % 0.02 in
19:57 64.6 °F 62.2 °F 29.9 in West 4 mph 4 mph 92 % 0.02 in
20:02 64.9 °F 62.6 °F 29.9 in SW 3 mph 5 mph 92 % 0.02 in
20:07 65.1 °F 62.4 °F 29.9 in SW 1 mph 6 mph 91 % 0.02 in
20:17 65.1 °F 62.4 °F 29.9 in SW 1 mph 6 mph 91 % 0 in
20:22 65.1 °F 62.1 °F 29.9 in SW 3 mph 4 mph 90 % 0 in
20:27 64.9 °F 62.2 °F 29.9 in WSW 3 mph 7 mph 91 % 0 in
20:32 64.8 °F 62.1 °F 29.9 in West 3 mph 7 mph 91 % 0 in
20:42 64.6 °F 61.9 °F 30 in West 3 mph 7 mph 91 % 0 in
20:47 64.8 °F 62.4 °F 30 in WSW 1 mph 5 mph 92 % 0 in
20:52 64.9 °F 62.2 °F 30 in Calm   5 mph 91 % 0 in
20:57 64.8 °F 62.1 °F 30 in SSW 1 mph 5 mph 91 % 0 in
21:02 64.8 °F 62.1 °F 30 in Calm   5 mph 91 % 0 in
21:07 64.6 °F 62.2 °F 30 in Calm   5 mph 92 % 0 in
21:12 64.6 °F 62.2 °F 30 in SW 4 mph 5 mph 92 % 0 in
21:17 64.6 °F 62.2 °F 30 in SW 2 mph 4 mph 92 % 0 in
21:27 64.6 °F 62.2 °F 30 in SW 1 mph 4 mph 92 % 0 in
21:32 64.6 °F 62.2 °F 30 in Calm   2 mph 92 % 0 in
21:42 64.6 °F 62.4 °F 30 in SSW 2 mph 3 mph 93 % 0 in
21:47 64.4 °F 62.4 °F 30 in SSW 1 mph 3 mph 93 % 0 in
21:52 64.2 °F 62.4 °F 30 in SW 2 mph 3 mph 94 % 0 in
21:57 64.2 °F 62.4 °F 30 in SW 2 mph 3 mph 94 % 0 in
22:02 64.2 °F 62.4 °F 30 in SSW 1 mph 3 mph 94 % 0 in
22:12 64 °F 62.2 °F 30 in Calm   2 mph 94 % 0 in
22:17 63.9 °F 62.1 °F 30 in Calm   2 mph 94 % 0 in
22:27 63.7 °F 61.9 °F 30 in Calm   2 mph 94 % 0 in
22:32 63.7 °F 62.2 °F 30 in Calm   3 mph 95 % 0 in
22:42 63.5 °F 62.1 °F 30 in SSW 2 mph 2 mph 95 % 0 in
22:47 63.5 °F 62.1 °F 30 in SSW 1 mph 5 mph 95 % 0 in
22:52 63.5 °F 62.1 °F 30 in SW 3 mph 5 mph 95 % 0 in
22:57 63.3 °F 61.9 °F 30 in SW 5 mph 5 mph 95 % 0 in
23:02 63.1 °F 61.7 °F 30 in SW 2 mph 5 mph 95 % 0 in
23:12 63.1 °F 61.7 °F 30 in SW 4 mph 6 mph 95 % 0 in
23:17 63.1 °F 61.7 °F 30 in WSW 4 mph 7 mph 95 % 0 in
23:22 63.1 °F 61.7 °F 30 in SW 4 mph 7 mph 95 % 0 in
23:27 63.1 °F 61.7 °F 30 in SSW 2 mph 7 mph 95 % 0 in
23:32 63.1 °F 61.7 °F 30 in SSW 2 mph 5 mph 95 % 0 in
23:42 62.8 °F 61.3 °F 30 in SW 6 mph 6 mph 95 % 0 in
23:47 62.8 °F 61.7 °F 30 in SSW 3 mph 6 mph 96 % 0 in
23:52 62.8 °F 61.3 °F 30 in SSE 2 mph 6 mph 95 % 0 in
23:57 62.2 °F 60.8 °F 30 in SW 2 mph 6 mph 95 % 0 in
Meteo18
Compliments of Weather Underground - 4 mb

Script developed by  Jim McMurry - jmcmurry@mwt.net Adapted for the template by  Wim van der Kuil - Leuven-Template.eu

You find our weather info also at:

European Weather Network

Weather Underground

Equipment we use:

Weather-station
Davis Vue

Weather-program
Meteohub

Weather-server
Raspberry PI 2 B+

Provider
1 and 1

Davis Vue

Meteohub

Raspberry PI 2 B+

1 and 1